sensor_id;sensor_type;location;lat;lon;timestamp;P1;durP1;ratioP1;P2;durP2;ratioP2
17927;SDS011;9089;58.396;15.544;2023-04-12T00:01:01;16.55;;;14.77;;
17927;SDS011;9089;58.396;15.544;2023-04-12T00:03:26;20.13;;;14.60;;
17927;SDS011;9089;58.396;15.544;2023-04-12T00:05:52;16.73;;;13.65;;
17927;SDS011;9089;58.396;15.544;2023-04-12T00:08:20;20.40;;;13.80;;
17927;SDS011;9089;58.396;15.544;2023-04-12T00:10:52;16.83;;;14.38;;
17927;SDS011;9089;58.396;15.544;2023-04-12T00:13:17;20.10;;;15.35;;
17927;SDS011;9089;58.396;15.544;2023-04-12T00:15:43;17.30;;;14.18;;
17927;SDS011;9089;58.396;15.544;2023-04-12T00:18:09;16.95;;;14.05;;
17927;SDS011;9089;58.396;15.544;2023-04-12T00:20:34;18.50;;;14.80;;
17927;SDS011;9089;58.396;15.544;2023-04-12T00:23:00;15.48;;;13.45;;
17927;SDS011;9089;58.396;15.544;2023-04-12T00:25:26;15.65;;;14.02;;
17927;SDS011;9089;58.396;15.544;2023-04-12T00:27:53;20.55;;;14.95;;
17927;SDS011;9089;58.396;15.544;2023-04-12T00:30:21;18.92;;;15.30;;
17927;SDS011;9089;58.396;15.544;2023-04-12T00:32:47;17.25;;;14.73;;
17927;SDS011;9089;58.396;15.544;2023-04-12T00:35:12;19.20;;;14.45;;
17927;SDS011;9089;58.396;15.544;2023-04-12T00:37:38;15.30;;;13.70;;
17927;SDS011;9089;58.396;15.544;2023-04-12T00:40:04;16.95;;;14.52;;
17927;SDS011;9089;58.396;15.544;2023-04-12T00:42:32;16.15;;;14.20;;
17927;SDS011;9089;58.396;15.544;2023-04-12T00:44:59;16.10;;;13.98;;
17927;SDS011;9089;58.396;15.544;2023-04-12T00:47:25;17.73;;;14.35;;
17927;SDS011;9089;58.396;15.544;2023-04-12T00:49:51;17.00;;;14.50;;
17927;SDS011;9089;58.396;15.544;2023-04-12T00:52:16;17.00;;;14.10;;
17927;SDS011;9089;58.396;15.544;2023-04-12T00:54:42;15.15;;;13.18;;
17927;SDS011;9089;58.396;15.544;2023-04-12T00:57:09;19.55;;;14.80;;
17927;SDS011;9089;58.396;15.544;2023-04-12T00:59:35;18.92;;;14.77;;
17927;SDS011;9089;58.396;15.544;2023-04-12T01:02:01;16.27;;;13.57;;
17927;SDS011;9089;58.396;15.544;2023-04-12T01:04:27;17.10;;;14.20;;
17927;SDS011;9089;58.396;15.544;2023-04-12T01:06:57;16.38;;;14.77;;
17927;SDS011;9089;58.396;15.544;2023-04-12T01:09:28;18.50;;;14.80;;
17927;SDS011;9089;58.396;15.544;2023-04-12T01:11:58;19.17;;;14.48;;
17927;SDS011;9089;58.396;15.544;2023-04-12T01:14:28;17.60;;;15.00;;
17927;SDS011;9089;58.396;15.544;2023-04-12T01:16:56;17.67;;;15.70;;
17927;SDS011;9089;58.396;15.544;2023-04-12T01:19:47;17.58;;;15.07;;
17927;SDS011;9089;58.396;15.544;2023-04-12T01:22:25;18.98;;;15.30;;
17927;SDS011;9089;58.396;15.544;2023-04-12T01:24:59;19.80;;;16.13;;
17927;SDS011;9089;58.396;15.544;2023-04-12T01:27:33;18.23;;;15.20;;
17927;SDS011;9089;58.396;15.544;2023-04-12T01:29:59;18.50;;;15.07;;
17927;SDS011;9089;58.396;15.544;2023-04-12T01:32:25;19.25;;;15.40;;
17927;SDS011;9089;58.396;15.544;2023-04-12T01:34:53;17.58;;;14.88;;
17927;SDS011;9089;58.396;15.544;2023-04-12T01:37:19;17.75;;;15.50;;
17927;SDS011;9089;58.396;15.544;2023-04-12T01:39:45;20.58;;;16.92;;
17927;SDS011;9089;58.396;15.544;2023-04-12T01:42:11;20.50;;;16.52;;
17927;SDS011;9089;58.396;15.544;2023-04-12T01:44:37;18.70;;;15.40;;
17927;SDS011;9089;58.396;15.544;2023-04-12T01:47:04;16.42;;;14.70;;
17927;SDS011;9089;58.396;15.544;2023-04-12T01:49:31;17.00;;;15.15;;
17927;SDS011;9089;58.396;15.544;2023-04-12T01:52:00;19.63;;;16.83;;
17927;SDS011;9089;58.396;15.544;2023-04-12T01:54:29;20.63;;;16.75;;
17927;SDS011;9089;58.396;15.544;2023-04-12T01:56:55;20.83;;;15.65;;
17927;SDS011;9089;58.396;15.544;2023-04-12T01:59:42;21.42;;;15.27;;
17927;SDS011;9089;58.396;15.544;2023-04-12T02:02:08;19.10;;;16.27;;
17927;SDS011;9089;58.396;15.544;2023-04-12T02:04:34;19.33;;;16.00;;
17927;SDS011;9089;58.396;15.544;2023-04-12T02:07:00;18.45;;;15.90;;
17927;SDS011;9089;58.396;15.544;2023-04-12T02:09:26;18.80;;;16.08;;
17927;SDS011;9089;58.396;15.544;2023-04-12T02:11:51;20.17;;;16.23;;
17927;SDS011;9089;58.396;15.544;2023-04-12T02:14:17;18.02;;;16.08;;
17927;SDS011;9089;58.396;15.544;2023-04-12T02:17:03;16.20;;;14.50;;
17927;SDS011;9089;58.396;15.544;2023-04-12T02:19:29;17.58;;;15.70;;
17927;SDS011;9089;58.396;15.544;2023-04-12T02:21:55;18.30;;;15.95;;
17927;SDS011;9089;58.396;15.544;2023-04-12T02:24:21;18.58;;;15.75;;
17927;SDS011;9089;58.396;15.544;2023-04-12T02:26:46;15.90;;;13.90;;
17927;SDS011;9089;58.396;15.544;2023-04-12T02:29:14;17.52;;;15.40;;
17927;SDS011;9089;58.396;15.544;2023-04-12T02:31:40;21.55;;;14.57;;
17927;SDS011;9089;58.396;15.544;2023-04-12T02:34:10;18.75;;;15.07;;
17927;SDS011;9089;58.396;15.544;2023-04-12T02:36:42;17.30;;;15.40;;
17927;SDS011;9089;58.396;15.544;2023-04-12T02:39:10;19.00;;;15.25;;
17927;SDS011;9089;58.396;15.544;2023-04-12T02:41:35;18.10;;;15.90;;
17927;SDS011;9089;58.396;15.544;2023-04-12T02:44:03;17.77;;;15.80;;
17927;SDS011;9089;58.396;15.544;2023-04-12T02:46:29;19.00;;;15.63;;
17927;SDS011;9089;58.396;15.544;2023-04-12T02:48:57;16.13;;;14.43;;
17927;SDS011;9089;58.396;15.544;2023-04-12T02:51:32;21.02;;;15.85;;
17927;SDS011;9089;58.396;15.544;2023-04-12T02:53:58;18.38;;;15.73;;
17927;SDS011;9089;58.396;15.544;2023-04-12T02:56:29;17.80;;;15.20;;
17927;SDS011;9089;58.396;15.544;2023-04-12T02:59:03;19.90;;;15.15;;
17927;SDS011;9089;58.396;15.544;2023-04-12T03:01:57;18.45;;;14.93;;
17927;SDS011;9089;58.396;15.544;2023-04-12T03:04:27;18.75;;;16.00;;
17927;SDS011;9089;58.396;15.544;2023-04-12T03:07:14;19.35;;;14.77;;
17927;SDS011;9089;58.396;15.544;2023-04-12T03:09:48;17.95;;;15.43;;
17927;SDS011;9089;58.396;15.544;2023-04-12T03:12:14;23.50;;;17.35;;
17927;SDS011;9089;58.396;15.544;2023-04-12T03:14:48;19.95;;;16.85;;
17927;SDS011;9089;58.396;15.544;2023-04-12T03:17:14;17.75;;;15.73;;
17927;SDS011;9089;58.396;15.544;2023-04-12T03:19:41;18.40;;;16.40;;
17927;SDS011;9089;58.396;15.544;2023-04-12T03:22:07;18.65;;;16.38;;
17927;SDS011;9089;58.396;15.544;2023-04-12T03:24:37;18.52;;;16.25;;
17927;SDS011;9089;58.396;15.544;2023-04-12T03:27:04;19.23;;;16.55;;
17927;SDS011;9089;58.396;15.544;2023-04-12T03:29:33;19.60;;;16.00;;
17927;SDS011;9089;58.396;15.544;2023-04-12T03:31:59;19.35;;;17.17;;
17927;SDS011;9089;58.396;15.544;2023-04-12T03:34:26;21.25;;;17.58;;
17927;SDS011;9089;58.396;15.544;2023-04-12T03:36:59;18.70;;;16.80;;
17927;SDS011;9089;58.396;15.544;2023-04-12T03:39:38;19.08;;;17.02;;
17927;SDS011;9089;58.396;15.544;2023-04-12T03:42:06;22.48;;;17.58;;
17927;SDS011;9089;58.396;15.544;2023-04-12T03:44:32;22.00;;;18.00;;
17927;SDS011;9089;58.396;15.544;2023-04-12T03:47:01;19.48;;;17.02;;
17927;SDS011;9089;58.396;15.544;2023-04-12T03:49:32;20.00;;;16.75;;
17927;SDS011;9089;58.396;15.544;2023-04-12T03:51:59;20.27;;;16.13;;
17927;SDS011;9089;58.396;15.544;2023-04-12T03:54:24;17.45;;;14.82;;
17927;SDS011;9089;58.396;15.544;2023-04-12T03:56:57;15.77;;;13.98;;
17927;SDS011;9089;58.396;15.544;2023-04-12T03:59:29;15.50;;;12.93;;
17927;SDS011;9089;58.396;15.544;2023-04-12T04:01:55;15.57;;;13.15;;
17927;SDS011;9089;58.396;15.544;2023-04-12T04:04:23;15.15;;;13.55;;
17927;SDS011;9089;58.396;15.544;2023-04-12T04:06:53;14.23;;;12.73;;
17927;SDS011;9089;58.396;15.544;2023-04-12T04:09:18;13.85;;;12.35;;
17927;SDS011;9089;58.396;15.544;2023-04-12T04:11:44;13.68;;;12.27;;
17927;SDS011;9089;58.396;15.544;2023-04-12T04:14:12;15.93;;;13.30;;
17927;SDS011;9089;58.396;15.544;2023-04-12T04:16:38;15.48;;;13.07;;
17927;SDS011;9089;58.396;15.544;2023-04-12T04:19:06;17.27;;;13.10;;
17927;SDS011;9089;58.396;15.544;2023-04-12T04:21:32;13.52;;;12.15;;
17927;SDS011;9089;58.396;15.544;2023-04-12T04:23:58;13.90;;;12.50;;
17927;SDS011;9089;58.396;15.544;2023-04-12T04:26:27;12.75;;;11.48;;
17927;SDS011;9089;58.396;15.544;2023-04-12T04:29:01;13.60;;;12.30;;
17927;SDS011;9089;58.396;15.544;2023-04-12T04:31:35;13.75;;;12.13;;
17927;SDS011;9089;58.396;15.544;2023-04-12T04:34:02;15.05;;;12.93;;
17927;SDS011;9089;58.396;15.544;2023-04-12T04:36:31;13.32;;;11.75;;
17927;SDS011;9089;58.396;15.544;2023-04-12T04:38:57;13.77;;;12.05;;
17927;SDS011;9089;58.396;15.544;2023-04-12T04:41:36;14.13;;;11.40;;
17927;SDS011;9089;58.396;15.544;2023-04-12T04:44:05;13.65;;;12.25;;
17927;SDS011;9089;58.396;15.544;2023-04-12T04:46:36;15.00;;;11.75;;
17927;SDS011;9089;58.396;15.544;2023-04-12T04:49:02;12.00;;;10.80;;
17927;SDS011;9089;58.396;15.544;2023-04-12T04:51:28;13.45;;;11.20;;
17927;SDS011;9089;58.396;15.544;2023-04-12T04:53:56;12.60;;;10.85;;
17927;SDS011;9089;58.396;15.544;2023-04-12T04:56:22;13.27;;;10.43;;
17927;SDS011;9089;58.396;15.544;2023-04-12T04:58:50;11.80;;;10.00;;
17927;SDS011;9089;58.396;15.544;2023-04-12T05:01:18;11.10;;;10.00;;
17927;SDS011;9089;58.396;15.544;2023-04-12T05:03:48;11.45;;;10.10;;
17927;SDS011;9089;58.396;15.544;2023-04-12T05:06:16;10.95;;;9.73;;
17927;SDS011;9089;58.396;15.544;2023-04-12T05:08:42;12.25;;;9.88;;
17927;SDS011;9089;58.396;15.544;2023-04-12T05:11:26;11.68;;;10.48;;
17927;SDS011;9089;58.396;15.544;2023-04-12T05:13:52;11.15;;;9.95;;
17927;SDS011;9089;58.396;15.544;2023-04-12T05:16:18;11.68;;;10.38;;
17927;SDS011;9089;58.396;15.544;2023-04-12T05:18:43;12.35;;;10.07;;
17927;SDS011;9089;58.396;15.544;2023-04-12T05:21:10;9.30;;;7.97;;
17927;SDS011;9089;58.396;15.544;2023-04-12T05:23:36;10.43;;;9.32;;
17927;SDS011;9089;58.396;15.544;2023-04-12T05:26:02;10.43;;;8.43;;
17927;SDS011;9089;58.396;15.544;2023-04-12T05:28:29;9.93;;;8.48;;
17927;SDS011;9089;58.396;15.544;2023-04-12T05:30:55;10.05;;;8.63;;
17927;SDS011;9089;58.396;15.544;2023-04-12T05:33:25;8.93;;;7.97;;
17927;SDS011;9089;58.396;15.544;2023-04-12T05:35:50;8.80;;;7.90;;
17927;SDS011;9089;58.396;15.544;2023-04-12T05:38:17;10.40;;;8.40;;
17927;SDS011;9089;58.396;15.544;2023-04-12T05:40:46;9.18;;;8.20;;
17927;SDS011;9089;58.396;15.544;2023-04-12T05:43:15;9.80;;;8.80;;
17927;SDS011;9089;58.396;15.544;2023-04-12T05:45:41;9.45;;;7.82;;
17927;SDS011;9089;58.396;15.544;2023-04-12T05:48:08;9.20;;;8.27;;
17927;SDS011;9089;58.396;15.544;2023-04-12T05:50:34;8.57;;;7.68;;
17927;SDS011;9089;58.396;15.544;2023-04-12T05:53:00;12.57;;;8.88;;
17927;SDS011;9089;58.396;15.544;2023-04-12T05:55:30;12.43;;;8.40;;
17927;SDS011;9089;58.396;15.544;2023-04-12T05:57:56;9.60;;;7.32;;
17927;SDS011;9089;58.396;15.544;2023-04-12T06:00:23;8.77;;;7.82;;
17927;SDS011;9089;58.396;15.544;2023-04-12T06:02:48;8.38;;;7.55;;
17927;SDS011;9089;58.396;15.544;2023-04-12T06:05:14;9.38;;;8.15;;
17927;SDS011;9089;58.396;15.544;2023-04-12T06:07:42;8.90;;;7.90;;
17927;SDS011;9089;58.396;15.544;2023-04-12T06:10:12;10.18;;;7.80;;
17927;SDS011;9089;58.396;15.544;2023-04-12T06:12:39;9.90;;;8.63;;
17927;SDS011;9089;58.396;15.544;2023-04-12T06:15:06;9.27;;;8.23;;
17927;SDS011;9089;58.396;15.544;2023-04-12T06:17:31;8.98;;;8.02;;
17927;SDS011;9089;58.396;15.544;2023-04-12T06:19:57;7.82;;;7.03;;
17927;SDS011;9089;58.396;15.544;2023-04-12T06:22:23;8.20;;;7.28;;
17927;SDS011;9089;58.396;15.544;2023-04-12T06:24:48;9.40;;;8.30;;
17927;SDS011;9089;58.396;15.544;2023-04-12T06:27:14;11.25;;;8.23;;
17927;SDS011;9089;58.396;15.544;2023-04-12T06:29:41;12.25;;;7.88;;
17927;SDS011;9089;58.396;15.544;2023-04-12T06:32:06;10.18;;;8.00;;
17927;SDS011;9089;58.396;15.544;2023-04-12T06:34:33;10.00;;;8.35;;
17927;SDS011;9089;58.396;15.544;2023-04-12T06:37:02;8.95;;;7.93;;
17927;SDS011;9089;58.396;15.544;2023-04-12T06:39:27;9.48;;;7.65;;
17927;SDS011;9089;58.396;15.544;2023-04-12T06:41:53;8.10;;;7.30;;
17927;SDS011;9089;58.396;15.544;2023-04-12T06:44:19;8.77;;;7.93;;
17927;SDS011;9089;58.396;15.544;2023-04-12T06:46:46;8.90;;;7.75;;
17927;SDS011;9089;58.396;15.544;2023-04-12T06:49:11;10.77;;;8.00;;
17927;SDS011;9089;58.396;15.544;2023-04-12T06:51:37;8.85;;;7.47;;
17927;SDS011;9089;58.396;15.544;2023-04-12T06:54:02;9.48;;;7.70;;
17927;SDS011;9089;58.396;15.544;2023-04-12T06:56:28;8.80;;;7.90;;
17927;SDS011;9089;58.396;15.544;2023-04-12T06:58:53;8.48;;;7.60;;
17927;SDS011;9089;58.396;15.544;2023-04-12T07:01:19;11.02;;;8.80;;
17927;SDS011;9089;58.396;15.544;2023-04-12T07:03:45;9.68;;;8.07;;
17927;SDS011;9089;58.396;15.544;2023-04-12T07:06:11;8.57;;;7.60;;
17927;SDS011;9089;58.396;15.544;2023-04-12T07:08:36;10.38;;;8.35;;
17927;SDS011;9089;58.396;15.544;2023-04-12T07:11:02;9.00;;;8.07;;
17927;SDS011;9089;58.396;15.544;2023-04-12T07:13:27;8.55;;;7.75;;
17927;SDS011;9089;58.396;15.544;2023-04-12T07:15:53;9.50;;;8.25;;
17927;SDS011;9089;58.396;15.544;2023-04-12T07:18:18;9.85;;;8.85;;
17927;SDS011;9089;58.396;15.544;2023-04-12T07:20:46;8.85;;;7.95;;
17927;SDS011;9089;58.396;15.544;2023-04-12T07:23:12;9.80;;;8.10;;
17927;SDS011;9089;58.396;15.544;2023-04-12T07:25:38;8.48;;;7.57;;
17927;SDS011;9089;58.396;15.544;2023-04-12T07:28:03;10.43;;;7.68;;
17927;SDS011;9089;58.396;15.544;2023-04-12T07:30:29;10.25;;;8.23;;
17927;SDS011;9089;58.396;15.544;2023-04-12T07:32:54;9.55;;;7.70;;
17927;SDS011;9089;58.396;15.544;2023-04-12T07:35:20;12.23;;;8.30;;
17927;SDS011;9089;58.396;15.544;2023-04-12T07:37:47;9.77;;;8.45;;
17927;SDS011;9089;58.396;15.544;2023-04-12T07:40:12;9.50;;;7.63;;
17927;SDS011;9089;58.396;15.544;2023-04-12T07:42:38;7.88;;;7.10;;
17927;SDS011;9089;58.396;15.544;2023-04-12T07:45:03;10.18;;;7.95;;
17927;SDS011;9089;58.396;15.544;2023-04-12T07:47:30;8.23;;;7.38;;
17927;SDS011;9089;58.396;15.544;2023-04-12T07:49:55;9.98;;;7.15;;
17927;SDS011;9089;58.396;15.544;2023-04-12T07:52:21;8.40;;;7.53;;
17927;SDS011;9089;58.396;15.544;2023-04-12T07:54:48;8.13;;;7.15;;
17927;SDS011;9089;58.396;15.544;2023-04-12T07:57:13;10.32;;;8.73;;
17927;SDS011;9089;58.396;15.544;2023-04-12T07:59:39;10.07;;;8.77;;
17927;SDS011;9089;58.396;15.544;2023-04-12T08:02:04;9.55;;;7.90;;
17927;SDS011;9089;58.396;15.544;2023-04-12T08:04:30;8.68;;;7.78;;
17927;SDS011;9089;58.396;15.544;2023-04-12T08:06:55;11.32;;;9.18;;
17927;SDS011;9089;58.396;15.544;2023-04-12T08:09:21;10.15;;;8.65;;
17927;SDS011;9089;58.396;15.544;2023-04-12T08:11:49;10.38;;;8.18;;
17927;SDS011;9089;58.396;15.544;2023-04-12T08:14:15;10.07;;;8.45;;
17927;SDS011;9089;58.396;15.544;2023-04-12T08:16:40;10.65;;;8.40;;
17927;SDS011;9089;58.396;15.544;2023-04-12T08:19:06;10.30;;;9.20;;
17927;SDS011;9089;58.396;15.544;2023-04-12T08:21:32;9.50;;;8.50;;
17927;SDS011;9089;58.396;15.544;2023-04-12T08:23:58;10.07;;;9.00;;
17927;SDS011;9089;58.396;15.544;2023-04-12T08:26:23;9.88;;;8.88;;
17927;SDS011;9089;58.396;15.544;2023-04-12T08:28:52;10.90;;;9.57;;
17927;SDS011;9089;58.396;15.544;2023-04-12T08:31:17;10.38;;;9.13;;
17927;SDS011;9089;58.396;15.544;2023-04-12T08:33:42;10.90;;;9.90;;
17927;SDS011;9089;58.396;15.544;2023-04-12T08:36:08;11.07;;;9.95;;
17927;SDS011;9089;58.396;15.544;2023-04-12T08:38:35;12.23;;;11.02;;
17927;SDS011;9089;58.396;15.544;2023-04-12T08:41:02;14.18;;;10.95;;
17927;SDS011;9089;58.396;15.544;2023-04-12T08:43:28;12.30;;;11.13;;
17927;SDS011;9089;58.396;15.544;2023-04-12T08:45:55;13.40;;;11.98;;
17927;SDS011;9089;58.396;15.544;2023-04-12T08:48:21;13.40;;;11.15;;
17927;SDS011;9089;58.396;15.544;2023-04-12T08:50:47;13.98;;;12.57;;
17927;SDS011;9089;58.396;15.544;2023-04-12T08:53:13;13.20;;;11.90;;
17927;SDS011;9089;58.396;15.544;2023-04-12T08:55:41;18.40;;;13.80;;
17927;SDS011;9089;58.396;15.544;2023-04-12T08:58:07;16.08;;;13.10;;
17927;SDS011;9089;58.396;15.544;2023-04-12T09:00:33;13.43;;;12.07;;
17927;SDS011;9089;58.396;15.544;2023-04-12T09:03:02;14.98;;;13.00;;
17927;SDS011;9089;58.396;15.544;2023-04-12T09:05:27;13.55;;;12.18;;
17927;SDS011;9089;58.396;15.544;2023-04-12T09:07:53;13.93;;;12.48;;
17927;SDS011;9089;58.396;15.544;2023-04-12T09:10:28;12.60;;;11.30;;
17927;SDS011;9089;58.396;15.544;2023-04-12T09:12:54;12.57;;;11.30;;
17927;SDS011;9089;58.396;15.544;2023-04-12T09:15:19;12.55;;;11.02;;
17927;SDS011;9089;58.396;15.544;2023-04-12T09:17:45;11.23;;;10.13;;
17927;SDS011;9089;58.396;15.544;2023-04-12T09:22:58;11.38;;;10.27;;
17927;SDS011;9089;58.396;15.544;2023-04-12T09:25:34;12.43;;;9.75;;
17927;SDS011;9089;58.396;15.544;2023-04-12T09:28:00;11.88;;;10.68;;
17927;SDS011;9089;58.396;15.544;2023-04-12T09:30:25;10.38;;;9.38;;
17927;SDS011;9089;58.396;15.544;2023-04-12T09:32:51;11.40;;;10.30;;
17927;SDS011;9089;58.396;15.544;2023-04-12T09:35:18;11.00;;;9.93;;
17927;SDS011;9089;58.396;15.544;2023-04-12T09:37:58;11.95;;;9.15;;
17927;SDS011;9089;58.396;15.544;2023-04-12T09:40:30;9.30;;;7.85;;
17927;SDS011;9089;58.396;15.544;2023-04-12T09:43:00;10.50;;;8.50;;
17927;SDS011;9089;58.396;15.544;2023-04-12T09:45:26;10.60;;;8.77;;
17927;SDS011;9089;58.396;15.544;2023-04-12T09:47:52;8.05;;;7.35;;
17927;SDS011;9089;58.396;15.544;2023-04-12T09:50:18;8.85;;;7.80;;
17927;SDS011;9089;58.396;15.544;2023-04-12T09:52:44;8.77;;;6.90;;
17927;SDS011;9089;58.396;15.544;2023-04-12T09:55:11;7.40;;;6.60;;
17927;SDS011;9089;58.396;15.544;2023-04-12T09:57:38;6.60;;;6.00;;
17927;SDS011;9089;58.396;15.544;2023-04-12T10:00:05;6.88;;;6.20;;
17927;SDS011;9089;58.396;15.544;2023-04-12T10:02:36;5.40;;;4.60;;
17927;SDS011;9089;58.396;15.544;2023-04-12T10:05:02;4.93;;;4.40;;
17927;SDS011;9089;58.396;15.544;2023-04-12T10:07:28;5.63;;;5.03;;
17927;SDS011;9089;58.396;15.544;2023-04-12T10:09:53;4.40;;;3.95;;
17927;SDS011;9089;58.396;15.544;2023-04-12T10:12:23;7.20;;;5.07;;
17927;SDS011;9089;58.396;15.544;2023-04-12T10:14:49;5.15;;;4.65;;
17927;SDS011;9089;58.396;15.544;2023-04-12T10:17:15;5.35;;;4.85;;
17927;SDS011;9089;58.396;15.544;2023-04-12T10:19:43;7.13;;;4.10;;
17927;SDS011;9089;58.396;15.544;2023-04-12T10:22:09;4.97;;;3.88;;
17927;SDS011;9089;58.396;15.544;2023-04-12T10:24:34;5.82;;;4.50;;
17927;SDS011;9089;58.396;15.544;2023-04-12T10:27:00;4.75;;;3.40;;
17927;SDS011;9089;58.396;15.544;2023-04-12T10:29:29;4.68;;;4.05;;
17927;SDS011;9089;58.396;15.544;2023-04-12T10:31:55;5.35;;;4.18;;
17927;SDS011;9089;58.396;15.544;2023-04-12T10:34:25;4.57;;;4.18;;
17927;SDS011;9089;58.396;15.544;2023-04-12T10:36:52;4.57;;;4.10;;
17927;SDS011;9089;58.396;15.544;2023-04-12T10:39:17;4.65;;;3.53;;
17927;SDS011;9089;58.396;15.544;2023-04-12T10:44:24;5.47;;;4.30;;
17927;SDS011;9089;58.396;15.544;2023-04-12T10:46:54;3.92;;;3.42;;
17927;SDS011;9089;58.396;15.544;2023-04-12T10:49:20;3.85;;;3.55;;
17927;SDS011;9089;58.396;15.544;2023-04-12T10:54:32;4.60;;;2.97;;
17927;SDS011;9089;58.396;15.544;2023-04-12T10:56:59;3.88;;;2.90;;
17927;SDS011;9089;58.396;15.544;2023-04-12T10:59:49;4.90;;;3.53;;
17927;SDS011;9089;58.396;15.544;2023-04-12T11:02:16;4.20;;;3.80;;
17927;SDS011;9089;58.396;15.544;2023-04-12T11:05:02;4.68;;;3.55;;
17927;SDS011;9089;58.396;15.544;2023-04-12T11:07:48;4.50;;;3.38;;
17927;SDS011;9089;58.396;15.544;2023-04-12T11:10:35;3.53;;;3.22;;
17927;SDS011;9089;58.396;15.544;2023-04-12T11:13:04;3.63;;;3.10;;
17927;SDS011;9089;58.396;15.544;2023-04-12T11:15:31;2.83;;;2.53;;
17927;SDS011;9089;58.396;15.544;2023-04-12T11:17:59;3.00;;;2.70;;
17927;SDS011;9089;58.396;15.544;2023-04-12T11:20:25;4.38;;;2.65;;
17927;SDS011;9089;58.396;15.544;2023-04-12T11:22:51;3.50;;;2.55;;
17927;SDS011;9089;58.396;15.544;2023-04-12T11:25:18;3.08;;;2.20;;
17927;SDS011;9089;58.396;15.544;2023-04-12T11:27:48;2.35;;;2.15;;
17927;SDS011;9089;58.396;15.544;2023-04-12T11:30:13;2.35;;;2.15;;
17927;SDS011;9089;58.396;15.544;2023-04-12T11:32:38;2.83;;;2.00;;
17927;SDS011;9089;58.396;15.544;2023-04-12T11:35:07;2.70;;;2.25;;
17927;SDS011;9089;58.396;15.544;2023-04-12T11:37:35;3.15;;;2.20;;
17927;SDS011;9089;58.396;15.544;2023-04-12T11:40:01;2.50;;;2.22;;
17927;SDS011;9089;58.396;15.544;2023-04-12T11:42:29;2.35;;;2.10;;
17927;SDS011;9089;58.396;15.544;2023-04-12T11:44:55;2.28;;;2.08;;
17927;SDS011;9089;58.396;15.544;2023-04-12T11:47:21;2.97;;;2.70;;
17927;SDS011;9089;58.396;15.544;2023-04-12T11:49:47;2.60;;;2.25;;
17927;SDS011;9089;58.396;15.544;2023-04-12T11:52:15;2.70;;;2.50;;
17927;SDS011;9089;58.396;15.544;2023-04-12T11:54:44;5.45;;;3.65;;
17927;SDS011;9089;58.396;15.544;2023-04-12T11:57:11;4.40;;;3.80;;
17927;SDS011;9089;58.396;15.544;2023-04-12T11:59:37;4.40;;;3.63;;
17927;SDS011;9089;58.396;15.544;2023-04-12T12:02:02;5.13;;;3.42;;
17927;SDS011;9089;58.396;15.544;2023-04-12T12:04:28;4.30;;;3.10;;
17927;SDS011;9089;58.396;15.544;2023-04-12T12:06:54;3.30;;;2.83;;
17927;SDS011;9089;58.396;15.544;2023-04-12T12:09:21;4.75;;;2.80;;
17927;SDS011;9089;58.396;15.544;2023-04-12T12:11:47;3.40;;;3.10;;
17927;SDS011;9089;58.396;15.544;2023-04-12T12:14:12;3.65;;;2.97;;
17927;SDS011;9089;58.396;15.544;2023-04-12T12:16:42;3.20;;;2.90;;
17927;SDS011;9089;58.396;15.544;2023-04-12T12:19:07;3.28;;;2.72;;
17927;SDS011;9089;58.396;15.544;2023-04-12T12:21:32;4.65;;;2.85;;
17927;SDS011;9089;58.396;15.544;2023-04-12T12:23:58;4.63;;;3.10;;
17927;SDS011;9089;58.396;15.544;2023-04-12T12:26:25;3.67;;;3.38;;
17927;SDS011;9089;58.396;15.544;2023-04-12T12:28:53;3.42;;;2.67;;
17927;SDS011;9089;58.396;15.544;2023-04-12T12:31:19;4.03;;;3.17;;
17927;SDS011;9089;58.396;15.544;2023-04-12T12:33:45;3.33;;;3.03;;
17927;SDS011;9089;58.396;15.544;2023-04-12T12:36:11;3.03;;;2.83;;
17927;SDS011;9089;58.396;15.544;2023-04-12T12:38:39;3.63;;;2.75;;
17927;SDS011;9089;58.396;15.544;2023-04-12T12:43:51;3.90;;;2.50;;
17927;SDS011;9089;58.396;15.544;2023-04-12T12:46:17;2.45;;;2.08;;
17927;SDS011;9089;58.396;15.544;2023-04-12T12:48:43;2.35;;;2.15;;
17927;SDS011;9089;58.396;15.544;2023-04-12T12:51:09;2.40;;;2.20;;
17927;SDS011;9089;58.396;15.544;2023-04-12T12:53:36;3.47;;;2.13;;
17927;SDS011;9089;58.396;15.544;2023-04-12T12:56:01;3.33;;;1.75;;
17927;SDS011;9089;58.396;15.544;2023-04-12T12:58:27;3.55;;;2.28;;
17927;SDS011;9089;58.396;15.544;2023-04-12T13:00:54;2.15;;;1.73;;
17927;SDS011;9089;58.396;15.544;2023-04-12T13:03:19;2.22;;;1.77;;
17927;SDS011;9089;58.396;15.544;2023-04-12T13:05:45;3.08;;;1.65;;
17927;SDS011;9089;58.396;15.544;2023-04-12T13:08:10;3.80;;;1.77;;
17927;SDS011;9089;58.396;15.544;2023-04-12T13:10:35;3.00;;;1.60;;
17927;SDS011;9089;58.396;15.544;2023-04-12T13:13:19;2.13;;;1.85;;
17927;SDS011;9089;58.396;15.544;2023-04-12T13:15:45;2.63;;;1.80;;
17927;SDS011;9089;58.396;15.544;2023-04-12T13:18:17;3.55;;;1.75;;
17927;SDS011;9089;58.396;15.544;2023-04-12T13:20:42;2.17;;;1.77;;
17927;SDS011;9089;58.396;15.544;2023-04-12T13:23:08;1.63;;;1.52;;
17927;SDS011;9089;58.396;15.544;2023-04-12T13:25:33;2.53;;;1.70;;
17927;SDS011;9089;58.396;15.544;2023-04-12T13:28:17;2.08;;;1.58;;
17927;SDS011;9089;58.396;15.544;2023-04-12T13:30:43;3.78;;;1.80;;
17927;SDS011;9089;58.396;15.544;2023-04-12T13:33:09;2.08;;;1.67;;
17927;SDS011;9089;58.396;15.544;2023-04-12T13:35:35;2.45;;;1.60;;
17927;SDS011;9089;58.396;15.544;2023-04-12T13:38:01;2.03;;;1.70;;
17927;SDS011;9089;58.396;15.544;2023-04-12T13:40:26;2.10;;;1.90;;
17927;SDS011;9089;58.396;15.544;2023-04-12T13:42:52;1.60;;;1.50;;
17927;SDS011;9089;58.396;15.544;2023-04-12T13:45:17;2.15;;;1.90;;
17927;SDS011;9089;58.396;15.544;2023-04-12T13:47:42;1.60;;;1.50;;
17927;SDS011;9089;58.396;15.544;2023-04-12T13:50:08;2.00;;;1.73;;
17927;SDS011;9089;58.396;15.544;2023-04-12T13:52:35;1.80;;;1.70;;
17927;SDS011;9089;58.396;15.544;2023-04-12T13:55:00;2.25;;;1.80;;
17927;SDS011;9089;58.396;15.544;2023-04-12T13:57:26;2.45;;;2.05;;
17927;SDS011;9089;58.396;15.544;2023-04-12T13:59:51;2.90;;;1.98;;
17927;SDS011;9089;58.396;15.544;2023-04-12T14:02:17;2.10;;;1.90;;
17927;SDS011;9089;58.396;15.544;2023-04-12T14:04:48;2.05;;;1.80;;
17927;SDS011;9089;58.396;15.544;2023-04-12T14:07:14;4.47;;;1.92;;
17927;SDS011;9089;58.396;15.544;2023-04-12T14:09:41;3.90;;;1.95;;
17927;SDS011;9089;58.396;15.544;2023-04-12T14:12:06;3.90;;;2.00;;
17927;SDS011;9089;58.396;15.544;2023-04-12T14:14:31;2.55;;;1.90;;
17927;SDS011;9089;58.396;15.544;2023-04-12T14:16:57;2.40;;;1.95;;
17927;SDS011;9089;58.396;15.544;2023-04-12T14:19:26;4.63;;;1.73;;
17927;SDS011;9089;58.396;15.544;2023-04-12T14:21:51;2.55;;;1.60;;
17927;SDS011;9089;58.396;15.544;2023-04-12T14:24:17;2.33;;;2.13;;
17927;SDS011;9089;58.396;15.544;2023-04-12T14:26:44;1.90;;;1.75;;
17927;SDS011;9089;58.396;15.544;2023-04-12T14:29:09;3.30;;;1.83;;
17927;SDS011;9089;58.396;15.544;2023-04-12T14:31:35;2.17;;;1.98;;
17927;SDS011;9089;58.396;15.544;2023-04-12T14:34:00;2.30;;;2.05;;
17927;SDS011;9089;58.396;15.544;2023-04-12T14:36:26;2.20;;;2.00;;
17927;SDS011;9089;58.396;15.544;2023-04-12T14:38:51;3.00;;;2.10;;
17927;SDS011;9089;58.396;15.544;2023-04-12T14:41:17;2.38;;;1.95;;
17927;SDS011;9089;58.396;15.544;2023-04-12T14:43:44;3.03;;;2.00;;
17927;SDS011;9089;58.396;15.544;2023-04-12T14:46:10;3.72;;;2.00;;
17927;SDS011;9089;58.396;15.544;2023-04-12T14:48:36;3.95;;;2.20;;